Time;durP1;ratioP1;P1;durP2;ratioP2;P2;SDS_P1;SDS_P2;PMS_P1;PMS_P2;Temp;Humidity;BMP_temperature;BMP_pressure;BME280_temperature;BME280_humidity;BME280_pressure;Samples;Min_cycle;Max_cycle;Signal;HPM_P1;HPM_P2
2022/05/12 00:01:51;;;;;;;3.15;1.98;;;20.20;52.70;;;;;;5006956;28;20076;-87
2022/05/12 00:04:17;;;;;;;1.67;1.58;;;20.30;52.90;;;;;;5005237;28;20030;-86
2022/05/12 00:06:42;;;;;;;5.57;1.70;;;20.30;52.80;;;;;;4994940;28;20444;-86
2022/05/12 00:09:08;;;;;;;2.75;1.70;;;20.30;52.70;;;;;;5004870;28;20030;-87
2022/05/12 00:11:33;;;;;;;5.38;1.73;;;20.30;52.40;;;;;;5002122;28;20022;-88
2022/05/12 00:13:59;;;;;;;2.15;1.45;;;20.30;52.60;;;;;;5003032;28;20032;-87
2022/05/12 00:16:24;;;;;;;2.47;1.60;;;20.30;52.60;;;;;;4998012;28;20505;-86
2022/05/12 00:18:50;;;;;;;2.67;1.60;;;20.40;52.70;;;;;;5014766;28;20023;-87
2022/05/12 00:21:16;;;;;;;2.90;1.60;;;20.40;52.70;;;;;;4999766;28;20471;-87
2022/05/12 00:23:41;;;;;;;1.80;1.60;;;20.40;52.60;;;;;;4999763;28;20112;-87
2022/05/12 00:26:25;;;;;;;2.47;1.70;;;20.30;52.50;;;;;;5004128;28;20022;-86
2022/05/12 00:28:51;;;;;;;5.05;1.70;;;20.40;52.60;;;;;;5002763;28;20022;-86
2022/05/12 00:31:17;;;;;;;1.77;1.50;;;20.30;52.50;;;;;;4993854;28;20473;-88
2022/05/12 00:33:42;;;;;;;1.75;1.60;;;20.30;52.40;;;;;;5009557;28;20445;-87
2022/05/12 00:36:08;;;;;;;1.50;1.40;;;20.30;52.70;;;;;;4994888;28;20030;-87
2022/05/12 00:38:33;;;;;;;5.15;1.70;;;20.30;53.00;;;;;;5004376;28;20025;-88
2022/05/12 00:40:59;;;;;;;2.97;1.70;;;20.30;53.10;;;;;;5002193;28;20061;-87
2022/05/12 00:43:42;;;;;;;1.67;1.55;;;20.40;52.90;;;;;;5007194;28;20018;-87
2022/05/12 00:46:14;;;;;;;1.60;1.50;;;20.30;52.90;;;;;;5002394;28;20029;-87
2022/05/12 00:48:40;;;;;;;5.68;1.80;;;20.30;52.90;;;;;;5000497;28;20014;-88
2022/05/12 00:51:09;;;;;;;4.18;1.77;;;20.30;52.80;;;;;;4991195;28;20042;-87
2022/05/12 00:53:36;;;;;;;3.92;1.70;;;20.30;53.00;;;;;;5000584;28;20026;-88
2022/05/12 00:56:03;;;;;;;1.75;1.58;;;20.20;53.10;;;;;;5001754;28;20053;-87
2022/05/12 00:58:31;;;;;;;2.75;1.65;;;20.20;53.10;;;;;;5007897;28;20051;-87
2022/05/12 01:00:57;;;;;;;2.58;1.58;;;20.20;53.10;;;;;;4999865;28;20022;-87
2022/05/12 01:03:25;;;;;;;3.15;2.08;;;20.10;52.90;;;;;;4990828;28;20026;-87
2022/05/12 01:05:52;;;;;;;1.85;1.65;;;20.10;53.00;;;;;;5007349;28;20097;-86
2022/05/12 01:08:20;;;;;;;2.65;1.33;;;20.10;53.00;;;;;;4995795;28;20061;-87
2022/05/12 01:10:53;;;;;;;3.47;1.58;;;20.10;52.90;;;;;;5002913;28;20076;-87
2022/05/12 01:13:20;;;;;;;2.40;1.50;;;20.10;52.90;;;;;;5007810;28;20109;-86
2022/05/12 01:15:56;;;;;;;4.70;1.88;;;20.10;52.80;;;;;;5005809;28;20081;-87
2022/05/12 01:18:23;;;;;;;2.35;1.70;;;20.00;53.00;;;;;;5009379;28;20029;-87
2022/05/12 01:20:50;;;;;;;5.68;2.10;;;20.00;53.10;;;;;;5009480;28;20125;-86
2022/05/12 01:23:18;;;;;;;4.93;1.67;;;20.00;53.20;;;;;;4997533;28;20018;-86
2022/05/12 01:25:44;;;;;;;2.75;1.60;;;20.00;53.20;;;;;;5000054;28;20042;-87
2022/05/12 01:28:09;;;;;;;2.85;1.75;;;19.90;53.20;;;;;;5005227;28;20490;-86
2022/05/12 01:30:35;;;;;;;2.10;1.48;;;20.00;53.60;;;;;;5004965;28;20042;-88
2022/05/12 01:33:00;;;;;;;1.90;1.80;;;20.00;54.30;;;;;;5023964;28;20073;-87
2022/05/12 01:35:26;;;;;;;5.63;1.60;;;20.00;54.10;;;;;;5004267;28;20080;-88
2022/05/12 01:37:53;;;;;;;2.38;1.75;;;20.00;54.20;;;;;;4990560;28;20023;-86
2022/05/12 01:40:21;;;;;;;2.05;1.55;;;20.00;54.60;;;;;;4995587;28;20068;-87
2022/05/12 01:42:47;;;;;;;2.70;1.80;;;19.90;54.90;;;;;;5007077;28;20172;-86
2022/05/12 01:45:13;;;;;;;1.95;1.75;;;19.90;54.40;;;;;;5014125;28;20211;-86
2022/05/12 01:47:41;;;;;;;7.30;2.35;;;19.90;54.70;;;;;;4998568;28;20130;-86
2022/05/12 01:50:08;;;;;;;2.97;2.10;;;19.80;54.70;;;;;;5008359;28;20041;-86
2022/05/12 01:52:33;;;;;;;4.07;2.00;;;19.80;55.00;;;;;;5008674;28;20029;-86
2022/05/12 01:54:59;;;;;;;3.08;1.83;;;19.70;55.10;;;;;;5008418;28;20703;-87
2022/05/12 01:57:25;;;;;;;3.17;1.85;;;19.70;55.30;;;;;;4998971;28;20026;-87
2022/05/12 01:59:51;;;;;;;3.70;2.05;;;19.70;55.50;;;;;;5023129;28;20482;-87
2022/05/12 02:02:16;;;;;;;6.53;1.95;;;19.70;55.60;;;;;;5007318;28;20072;-85
2022/05/12 02:04:42;;;;;;;2.00;1.85;;;19.70;56.00;;;;;;5004714;28;20494;-87
2022/05/12 02:07:08;;;;;;;3.75;2.60;;;19.60;56.30;;;;;;5021025;28;20033;-87
2022/05/12 02:09:35;;;;;;;2.63;1.88;;;19.60;56.60;;;;;;4999506;28;20022;-87
2022/05/12 02:12:00;;;;;;;3.60;2.10;;;19.60;56.70;;;;;;5001257;28;20018;-87
2022/05/12 02:14:27;;;;;;;3.45;2.30;;;19.60;56.90;;;;;;4997902;28;20026;-86
2022/05/12 02:16:52;;;;;;;2.95;2.10;;;19.60;57.30;;;;;;5007215;28;20053;-87
2022/05/12 02:19:18;;;;;;;3.25;1.95;;;19.60;57.60;;;;;;5005839;28;20349;-86
2022/05/12 02:21:44;;;;;;;6.45;2.00;;;19.60;57.70;;;;;;5019183;28;20038;-87
2022/05/12 02:24:10;;;;;;;2.25;1.73;;;19.60;58.00;;;;;;5021523;28;20411;-86
2022/05/12 02:26:35;;;;;;;1.98;1.88;;;19.60;58.30;;;;;;4999990;28;20415;-87
2022/05/12 02:29:02;;;;;;;2.60;2.35;;;19.60;58.50;;;;;;5031900;28;20032;-86
2022/05/12 02:31:27;;;;;;;4.40;2.08;;;19.60;58.70;;;;;;5032639;28;20037;-88
2022/05/12 02:33:53;;;;;;;2.42;1.92;;;19.70;58.80;;;;;;4999060;28;20022;-88
2022/05/12 02:36:19;;;;;;;4.03;2.05;;;19.70;58.90;;;;;;5039937;28;20026;-87
2022/05/12 02:38:44;;;;;;;5.28;1.98;;;19.60;59.00;;;;;;4998230;28;20113;-87
2022/05/12 02:41:10;;;;;;;5.38;1.80;;;19.60;59.10;;;;;;5007754;28;20034;-87
2022/05/12 02:43:36;;;;;;;5.63;1.85;;;19.60;59.10;;;;;;5001944;28;20046;-88
2022/05/12 02:46:07;;;;;;;1.75;1.52;;;19.60;59.20;;;;;;5009936;28;20249;-87
2022/05/12 02:48:38;;;;;;;2.03;1.48;;;19.70;59.50;;;;;;5009787;28;20235;-87
2022/05/12 02:51:05;;;;;;;1.98;1.60;;;19.70;59.50;;;;;;5002081;28;20539;-88
2022/05/12 02:53:31;;;;;;;4.57;1.63;;;19.70;59.50;;;;;;5003115;28;20242;-87
2022/05/12 02:55:58;;;;;;;4.82;1.35;;;19.60;59.50;;;;;;4995791;28;20053;-88
2022/05/12 02:58:27;;;;;;;1.52;1.33;;;19.70;59.60;;;;;;5005058;28;20160;-87
2022/05/12 03:00:52;;;;;;;2.20;1.30;;;19.70;59.70;;;;;;4994235;28;20030;-88
2022/05/12 03:03:18;;;;;;;3.85;1.20;;;19.70;59.80;;;;;;4985001;28;20076;-86
2022/05/12 03:05:44;;;;;;;4.07;1.50;;;19.70;59.70;;;;;;5001300;28;20030;-87
2022/05/12 03:08:10;;;;;;;3.40;1.10;;;19.70;59.60;;;;;;5008870;28;20101;-87
2022/05/12 03:10:36;;;;;;;1.73;1.10;;;19.70;59.80;;;;;;5002903;28;20045;-86
2022/05/12 03:13:03;;;;;;;8.02;1.17;;;19.70;59.80;;;;;;4998149;28;20094;-86
2022/05/12 03:15:29;;;;;;;2.28;1.30;;;19.70;59.80;;;;;;5004819;28;20205;-87
2022/05/12 03:17:55;;;;;;;1.63;1.30;;;19.70;59.80;;;;;;5011808;28;20026;-87
2022/05/12 03:20:23;;;;;;;2.95;1.23;;;19.60;59.90;;;;;;5012785;28;20430;-87
2022/05/12 03:22:49;;;;;;;2.85;0.90;;;19.60;59.90;;;;;;4999616;28;20113;-86
2022/05/12 03:25:17;;;;;;;4.60;1.52;;;19.60;59.90;;;;;;5010253;28;20022;-86
2022/05/12 03:27:43;;;;;;;1.10;1.00;;;19.60;60.20;;;;;;4998312;28;20030;-88
2022/05/12 03:30:13;;;;;;;2.33;1.33;;;19.60;60.20;;;;;;5005490;28;20022;-86
2022/05/12 03:32:38;;;;;;;3.35;1.25;;;19.60;60.30;;;;;;5015404;28;20025;-87
2022/05/12 03:35:05;;;;;;;3.35;1.30;;;19.60;60.20;;;;;;5013168;28;20169;-87
2022/05/12 03:37:31;;;;;;;1.33;1.23;;;19.50;60.40;;;;;;5014893;28;20389;-87
2022/05/12 03:39:57;;;;;;;2.95;1.25;;;19.60;60.60;;;;;;5015056;28;20026;-88
2022/05/12 03:42:22;;;;;;;3.13;1.23;;;19.50;60.50;;;;;;4999568;28;20426;-86
2022/05/12 03:44:49;;;;;;;1.63;1.30;;;19.50;60.50;;;;;;4996541;28;20101;-86
2022/05/12 03:47:19;;;;;;;4.13;1.35;;;19.50;60.80;;;;;;5000723;28;20096;-87
2022/05/12 03:49:49;;;;;;;2.40;1.15;;;19.50;60.90;;;;;;5023440;28;20029;-87
2022/05/12 03:52:15;;;;;;;2.03;1.48;;;19.40;61.00;;;;;;4988086;28;20031;-85
2022/05/12 03:54:42;;;;;;;3.53;1.50;;;19.40;61.10;;;;;;4987075;28;20122;-85
2022/05/12 03:57:08;;;;;;;4.93;1.70;;;19.40;61.20;;;;;;4995324;28;20121;-86
2022/05/12 03:59:34;;;;;;;3.63;1.50;;;19.30;61.40;;;;;;5074290;23;20104;-85
2022/05/12 04:02:00;;;;;;;2.08;1.45;;;19.30;61.60;;;;;;5009187;28;20025;-84
2022/05/12 04:04:25;;;;;;;4.88;1.90;;;19.30;61.70;;;;;;4992090;28;20034;-83
2022/05/12 04:06:51;;;;;;;1.83;1.63;;;19.30;61.80;;;;;;4993943;28;20398;-83
2022/05/12 04:09:17;;;;;;;4.22;1.38;;;19.30;62.00;;;;;;5008550;28;20056;-84
2022/05/12 04:11:43;;;;;;;2.03;1.60;;;19.30;62.20;;;;;;4990614;28;20022;-85
2022/05/12 04:14:08;;;;;;;4.32;1.50;;;19.20;62.20;;;;;;4990119;28;20026;-84
2022/05/12 04:16:36;;;;;;;2.58;1.60;;;19.20;62.40;;;;;;4992911;28;20030;-85
2022/05/12 04:19:03;;;;;;;3.90;1.80;;;19.20;62.40;;;;;;5009042;28;20079;-86
2022/05/12 04:21:31;;;;;;;1.50;1.40;;;19.20;62.60;;;;;;4985627;28;20026;-86
2022/05/12 04:23:56;;;;;;;2.50;1.58;;;19.20;62.80;;;;;;5006165;28;20093;-86
2022/05/12 04:26:22;;;;;;;4.35;1.30;;;19.10;62.70;;;;;;4984947;28;20175;-86
2022/05/12 04:28:48;;;;;;;4.53;1.55;;;19.10;62.80;;;;;;4989581;28;20117;-85
2022/05/12 04:31:14;;;;;;;2.03;1.30;;;19.10;62.90;;;;;;4996554;28;20477;-87
2022/05/12 04:36:23;;;;;;;1.73;1.40;;;19.10;63.10;;;;;;5009545;28;20036;-86
2022/05/12 04:38:49;;;;;;;1.88;1.38;;;19.10;63.10;;;;;;5003285;28;20023;-86
2022/05/12 04:41:16;;;;;;;3.50;1.65;;;19.10;63.20;;;;;;4984577;28;20112;-86
2022/05/12 04:43:42;;;;;;;3.92;1.38;;;19.20;63.30;;;;;;4981577;28;20022;-86
2022/05/12 04:46:07;;;;;;;1.58;1.30;;;19.20;63.30;;;;;;4994416;28;20138;-85
2022/05/12 04:48:33;;;;;;;3.03;1.27;;;19.20;63.20;;;;;;5001443;28;20084;-87
2022/05/12 04:50:59;;;;;;;2.97;1.30;;;19.30;63.30;;;;;;4987596;28;20030;-86
2022/05/12 04:53:25;;;;;;;1.52;1.30;;;19.30;63.30;;;;;;4994514;28;20033;-86
2022/05/12 04:55:51;;;;;;;4.07;1.50;;;19.40;63.30;;;;;;5002320;28;20090;-86
2022/05/12 04:58:17;;;;;;;3.42;1.75;;;19.40;63.30;;;;;;4993784;28;20061;-85
2022/05/12 05:00:44;;;;;;;2.97;1.52;;;19.50;63.30;;;;;;4993286;28;20033;-84
2022/05/12 05:03:11;;;;;;;5.53;1.60;;;19.50;63.30;;;;;;5029095;28;20041;-85
2022/05/12 05:05:37;;;;;;;2.25;1.30;;;19.60;63.30;;;;;;5013409;28;20014;-85
2022/05/12 05:08:04;;;;;;;5.35;1.50;;;19.60;63.30;;;;;;5002738;28;20094;-86
2022/05/12 05:10:32;;;;;;;2.65;1.80;;;19.70;63.30;;;;;;4993544;28;20037;-85
2022/05/12 05:12:58;;;;;;;2.22;1.30;;;19.80;63.20;;;;;;4989007;28;21090;-84
2022/05/12 05:15:25;;;;;;;4.93;1.45;;;19.80;63.20;;;;;;5007387;28;20022;-84
2022/05/12 05:17:51;;;;;;;2.45;1.55;;;19.80;63.40;;;;;;4996176;28;20541;-85
2022/05/12 05:20:20;;;;;;;3.53;1.25;;;19.90;63.30;;;;;;4995485;28;20379;-85
2022/05/12 05:22:46;;;;;;;5.72;1.70;;;19.90;63.50;;;;;;4993776;28;20046;-84
2022/05/12 05:25:12;;;;;;;2.45;1.77;;;19.90;63.50;;;;;;4993294;28;20077;-85
2022/05/12 05:27:38;;;;;;;3.63;1.63;;;20.00;63.70;;;;;;5014014;28;20148;-84
2022/05/12 05:30:08;;;;;;;4.13;1.60;;;20.00;64.10;;;;;;4995197;28;20116;-85
2022/05/12 05:32:33;;;;;;;4.90;1.77;;;20.00;63.80;;;;;;4993652;28;20034;-85
2022/05/12 05:34:59;;;;;;;3.55;1.40;;;19.90;63.80;;;;;;5004796;28;20022;-85
2022/05/12 05:37:24;;;;;;;2.15;1.48;;;19.90;63.80;;;;;;4977396;28;20187;-85
2022/05/12 05:39:50;;;;;;;2.58;1.60;;;19.80;63.80;;;;;;5001477;28;20032;-85
2022/05/12 05:42:19;;;;;;;2.70;1.40;;;19.80;64.00;;;;;;4994355;28;20391;-84
2022/05/12 05:44:45;;;;;;;3.95;1.40;;;19.80;64.30;;;;;;5011951;28;20018;-84
2022/05/12 05:47:10;;;;;;;1.77;1.33;;;19.70;64.20;;;;;;4998603;28;20040;-85
2022/05/12 05:49:37;;;;;;;4.45;1.20;;;19.70;64.20;;;;;;5000673;28;20021;-84
2022/05/12 05:54:47;;;;;;;2.85;1.33;;;19.70;64.40;;;;;;5021296;28;20511;-84
2022/05/12 05:57:13;;;;;;;6.03;2.30;;;19.70;64.60;;;;;;5005485;28;20029;-85
2022/05/12 05:59:39;;;;;;;2.92;1.52;;;19.70;64.50;;;;;;5009769;28;20109;-85
2022/05/12 06:02:06;;;;;;;3.50;1.40;;;19.70;64.80;;;;;;4997650;28;20073;-84
2022/05/12 06:04:31;;;;;;;2.25;1.50;;;19.70;64.70;;;;;;4995518;28;20434;-85
2022/05/12 06:06:57;;;;;;;1.45;1.35;;;19.70;64.80;;;;;;5005492;28;20059;-83
2022/05/12 06:09:24;;;;;;;1.65;1.33;;;19.60;64.90;;;;;;5016073;28;20060;-83
2022/05/12 06:11:49;;;;;;;1.63;1.20;;;19.50;65.10;;;;;;5012410;28;20058;-84
2022/05/12 06:14:15;;;;;;;3.97;1.40;;;19.50;65.30;;;;;;5011013;28;20516;-84
2022/05/12 06:16:41;;;;;;;4.18;1.45;;;19.60;65.30;;;;;;5014305;28;20034;-85
2022/05/12 06:19:07;;;;;;;1.88;1.20;;;19.50;65.20;;;;;;5013612;28;20095;-84
2022/05/12 06:21:35;;;;;;;2.60;1.40;;;19.50;65.40;;;;;;5010913;28;20025;-84
2022/05/12 06:24:01;;;;;;;3.85;1.20;;;19.50;65.50;;;;;;5013182;28;20125;-85
2022/05/12 06:26:27;;;;;;;3.67;1.42;;;19.40;65.90;;;;;;4995236;28;20120;-85
2022/05/12 06:28:52;;;;;;;2.35;1.10;;;19.40;65.50;;;;;;4995678;28;20112;-83
2022/05/12 06:31:25;;;;;;;4.05;1.10;;;19.40;65.60;;;;;;5015636;28;20028;-84
2022/05/12 06:33:52;;;;;;;1.48;0.98;;;19.40;65.80;;;;;;4997247;28;20057;-84
2022/05/12 06:36:17;;;;;;;2.90;1.08;;;19.50;65.80;;;;;;4987788;28;20021;-85
2022/05/12 06:38:43;;;;;;;4.15;1.10;;;19.60;65.80;;;;;;5015681;28;20032;-85
2022/05/12 06:41:09;;;;;;;2.95;1.17;;;19.70;65.80;;;;;;4996317;28;20109;-84
2022/05/12 06:43:35;;;;;;;1.30;1.05;;;19.70;65.70;;;;;;4987160;28;20021;-87
2022/05/12 06:46:01;;;;;;;1.63;1.08;;;19.70;65.60;;;;;;4996047;28;20077;-86
2022/05/12 06:48:27;;;;;;;2.85;0.90;;;19.80;65.60;;;;;;4991395;28;20494;-85
2022/05/12 06:50:53;;;;;;;1.88;1.13;;;19.80;65.70;;;;;;5013216;28;20453;-87
2022/05/12 06:53:18;;;;;;;2.15;0.90;;;19.90;65.60;;;;;;4995924;28;20029;-87
2022/05/12 06:55:45;;;;;;;2.65;0.85;;;19.90;65.50;;;;;;5035386;28;20422;-87
2022/05/12 06:58:17;;;;;;;3.65;1.27;;;20.00;65.30;;;;;;5025227;28;20044;-83
2022/05/12 07:00:43;;;;;;;3.42;1.20;;;20.00;65.30;;;;;;5013110;28;20026;-85
2022/05/12 07:03:11;;;;;;;4.22;1.25;;;20.00;65.10;;;;;;5004943;28;20476;-86
2022/05/12 07:05:38;;;;;;;2.45;1.23;;;20.00;65.20;;;;;;4979650;28;20101;-87
2022/05/12 07:08:05;;;;;;;1.42;0.95;;;20.00;65.30;;;;;;4990913;28;20037;-88
2022/05/12 07:10:31;;;;;;;3.80;1.50;;;20.00;65.30;;;;;;4986614;28;20057;-88
2022/05/12 07:12:57;;;;;;;3.38;1.13;;;19.90;65.30;;;;;;5014904;28;20038;-87
2022/05/12 07:15:27;;;;;;;1.33;1.02;;;19.90;65.60;;;;;;5013153;28;20017;-89
2022/05/12 07:17:55;;;;;;;3.83;0.95;;;19.90;65.60;;;;;;5011374;28;20049;-87
2022/05/12 07:26:51;;;;;;;5.25;1.10;;;19.70;66.00;;;;;;5011825;28;20509;-87
2022/05/12 07:28:46;;;;;;;3.38;1.10;;;19.70;66.00;;;;;;5000355;28;20051;-85
2022/05/12 07:31:12;;;;;;;2.67;1.00;;;19.70;66.20;;;;;;5011990;28;20029;-85
2022/05/12 07:33:40;;;;;;;4.40;1.55;;;19.70;66.30;;;;;;4994028;28;20026;-87
2022/05/12 07:36:10;;;;;;;3.33;1.77;;;19.70;66.20;;;;;;4993880;28;20057;-86
2022/05/12 07:38:37;;;;;;;4.00;0.95;;;19.80;66.30;;;;;;5009139;28;20123;-89
2022/05/12 07:41:04;;;;;;;5.28;1.13;;;19.80;66.30;;;;;;5012484;28;20025;-85
2022/05/12 07:43:30;;;;;;;3.80;1.33;;;19.90;66.40;;;;;;5022706;28;20030;-85
2022/05/12 07:45:56;;;;;;;8.10;1.30;;;20.00;66.40;;;;;;5012990;28;20029;-87
2022/05/12 07:48:21;;;;;;;2.83;0.98;;;20.00;66.20;;;;;;4996267;28;20022;-85
2022/05/12 07:50:47;;;;;;;3.60;1.05;;;20.10;66.20;;;;;;5003581;28;20045;-86
2022/05/12 07:53:13;;;;;;;2.15;0.90;;;20.20;66.10;;;;;;4990444;28;20034;-85
2022/05/12 07:55:38;;;;;;;2.25;0.90;;;20.30;65.90;;;;;;4992441;28;20026;-85
2022/05/12 07:58:05;;;;;;;1.10;0.95;;;20.30;65.80;;;;;;5007947;28;20039;-86
2022/05/12 08:00:32;;;;;;;2.13;0.70;;;20.40;65.80;;;;;;5007307;28;20034;-85
2022/05/12 08:02:58;;;;;;;2.67;1.00;;;20.50;65.70;;;;;;4995330;28;20084;-85
2022/05/12 08:05:25;;;;;;;2.70;0.80;;;20.50;65.50;;;;;;4991408;28;20022;-85
2022/05/12 08:07:52;;;;;;;3.75;1.10;;;20.70;65.80;;;;;;4990312;28;20138;-85
2022/05/12 08:10:18;;;;;;;1.10;1.00;;;20.90;65.70;;;;;;5008780;28;20068;-82
2022/05/12 08:12:43;;;;;;;2.20;0.85;;;21.00;65.30;;;;;;5020244;28;20628;-84
2022/05/12 08:15:12;;;;;;;2.28;0.90;;;21.30;65.10;;;;;;5000347;28;20108;-84
2022/05/12 08:17:38;;;;;;;1.88;0.70;;;21.40;65.10;;;;;;5013158;28;20021;-84
2022/05/12 08:20:05;;;;;;;3.17;1.10;;;21.50;64.70;;;;;;4997470;28;20026;-85
2022/05/12 08:22:32;;;;;;;7.57;2.97;;;21.60;64.50;;;;;;4989649;28;20549;-84
2022/05/12 08:24:58;;;;;;;2.20;0.85;;;21.60;64.50;;;;;;4990998;28;20025;-84
2022/05/12 08:27:25;;;;;;;1.90;1.00;;;22.00;64.10;;;;;;4990259;28;20030;-85
2022/05/12 08:29:54;;;;;;;2.60;0.75;;;22.00;63.80;;;;;;4985487;28;20487;-85
2022/05/12 08:32:19;;;;;;;1.20;0.93;;;22.10;63.60;;;;;;5010622;28;20022;-86
2022/05/12 08:34:45;;;;;;;3.63;0.93;;;22.10;63.40;;;;;;5002601;28;20018;-84
2022/05/12 08:37:12;;;;;;;1.92;1.10;;;22.00;63.50;;;;;;5012534;28;20401;-85
2022/05/12 08:39:38;;;;;;;1.50;0.80;;;22.20;63.40;;;;;;4991706;28;20061;-88
2022/05/12 08:42:33;;;;;;;1.55;0.80;;;22.10;63.40;;;;;;5005557;28;20034;-91
2022/05/12 08:45:01;;;;;;;1.38;0.70;;;22.20;63.40;;;;;;4998293;28;20026;-84
2022/05/12 08:47:49;;;;;;;3.55;0.98;;;22.30;63.30;;;;;;5006159;28;20030;-84
2022/05/12 08:50:26;;;;;;;1.70;0.82;;;22.60;63.10;;;;;;5005360;28;20081;-84
2022/05/12 08:52:54;;;;;;;3.15;0.90;;;22.70;62.90;;;;;;4999585;28;20030;-84
2022/05/12 08:55:27;;;;;;;5.68;0.80;;;23.00;63.20;;;;;;5012729;28;20030;-84
2022/05/12 08:58:00;;;;;;;4.18;0.85;;;23.20;62.80;;;;;;5034202;28;20027;-84
2022/05/12 09:00:31;;;;;;;3.55;0.90;;;23.50;62.40;;;;;;5004353;28;20089;-85
2022/05/12 09:03:42;;;;;;;2.13;0.80;;;23.50;61.80;;;;;;5012240;28;20025;-84
2022/05/12 09:06:20;;;;;;;2.83;0.80;;;23.40;61.30;;;;;;4917360;29;20115;-84
2022/05/12 09:09:13;;;;;;;3.38;0.90;;;23.50;60.80;;;;;;4984322;28;20042;-84
2022/05/12 09:12:10;;;;;;;3.08;1.10;;;23.30;60.80;;;;;;5006846;28;20116;-85
2022/05/12 09:14:48;;;;;;;2.80;1.00;;;23.20;60.40;;;;;;4963744;28;20034;-84
2022/05/12 09:17:22;;;;;;;5.47;1.00;;;23.40;60.10;;;;;;5005117;28;20026;-84
2022/05/12 09:19:48;;;;;;;1.48;0.80;;;23.50;60.10;;;;;;4995152;28;20137;-84
2022/05/12 09:22:14;;;;;;;5.18;0.95;;;23.60;60.00;;;;;;5017711;28;20017;-83
2022/05/12 09:24:41;;;;;;;2.28;1.33;;;23.50;59.60;;;;;;5033495;28;20100;-84
2022/05/12 09:27:08;;;;;;;8.48;1.35;;;23.20;59.70;;;;;;5008535;28;20018;-84
2022/05/12 09:29:44;;;;;;;4.28;1.13;;;23.10;59.70;;;;;;4992792;28;20479;-84
2022/05/12 09:32:09;;;;;;;6.38;1.17;;;23.00;59.90;;;;;;5013989;28;20029;-84
2022/05/12 09:34:37;;;;;;;1.13;1.00;;;23.30;59.90;;;;;;5012298;28;20151;-83
2022/05/12 09:37:30;;;;;;;2.20;1.38;;;23.90;59.10;;;;;;5011740;28;20037;-84
2022/05/12 09:40:12;;;;;;;3.95;1.30;;;25.90;57.00;;;;;;4996083;28;20034;-84
2022/05/12 09:42:41;;;;;;;7.72;1.40;;;26.50;55.30;;;;;;5002176;28;20037;-84
2022/05/12 09:45:26;;;;;;;2.50;1.00;;;26.50;55.90;;;;;;4994290;28;20026;-84
2022/05/12 09:48:12;;;;;;;3.20;1.10;;;26.40;54.90;;;;;;5006911;28;20108;-84
2022/05/12 09:50:38;;;;;;;4.90;1.40;;;26.20;55.50;;;;;;5010917;28;20038;-84
2022/05/12 09:53:06;;;;;;;5.63;1.30;;;27.60;54.10;;;;;;4995185;28;20093;-85
2022/05/12 09:56:24;;;;;;;1.85;1.08;;;28.90;52.50;;;;;;5020191;28;20089;-88
2022/05/12 09:59:01;;;;;;;2.17;1.02;;;30.20;51.10;;;;;;5009539;28;20613;-92
2022/05/12 10:01:30;;;;;;;3.42;1.42;;;30.80;49.70;;;;;;5048447;23;20312;-90
2022/05/12 10:10:30;;;;;;;4.47;1.20;;;32.80;46.80;;;;;;4996247;28;20034;-87
2022/05/12 10:13:05;;;;;;;5.20;1.30;;;33.10;45.90;;;;;;4995906;28;20038;-86
2022/05/12 10:15:39;;;;;;;3.60;1.10;;;32.00;46.40;;;;;;4986851;28;20029;-88
2022/05/12 10:18:10;;;;;;;3.15;1.00;;;30.60;47.50;;;;;;5002612;28;20022;-88
2022/05/12 10:20:49;;;;;;;4.43;1.05;;;29.10;49.10;;;;;;4995040;28;20050;-90
2022/05/12 10:23:47;;;;;;;4.00;1.25;;;28.80;49.70;;;;;;4988873;28;20435;-89
2022/05/12 10:26:15;;;;;;;1.55;1.00;;;27.50;51.30;;;;;;4994527;28;20033;-88
2022/05/12 10:28:56;;;;;;;1.20;1.00;;;26.90;52.20;;;;;;4982073;28;20531;-88
2022/05/12 10:31:26;;;;;;;2.75;1.10;;;26.50;53.40;;;;;;4990004;28;20050;-89
2022/05/12 10:34:04;;;;;;;3.30;1.52;;;27.10;51.80;;;;;;4998984;28;20030;-88
2022/05/12 10:37:01;;;;;;;1.45;1.23;;;27.80;52.00;;;;;;4998712;28;20117;-88
2022/05/12 10:39:47;;;;;;;4.13;1.27;;;28.10;50.90;;;;;;4985318;28;20030;-87
2022/05/12 10:42:31;;;;;;;3.28;1.20;;;27.30;51.40;;;;;;5011123;28;20030;-88
2022/05/12 10:45:11;;;;;;;4.85;1.20;;;26.60;52.90;;;;;;5000571;28;20236;-88
2022/05/12 10:48:04;;;;;;;4.75;1.42;;;26.30;53.10;;;;;;5008482;28;20018;-89
2022/05/12 10:50:45;;;;;;;1.58;1.10;;;25.80;53.50;;;;;;4998014;28;20023;-88
2022/05/12 10:54:02;;;;;;;4.25;1.25;;;25.90;53.90;;;;;;4993225;28;20021;-89
2022/05/12 10:56:59;;;;;;;1.40;1.30;;;25.30;54.00;;;;;;4972182;28;20043;-90
2022/05/12 10:59:55;;;;;;;3.63;1.15;;;25.50;54.70;;;;;;4991757;28;20532;-88
2022/05/12 11:02:42;;;;;;;4.10;1.40;;;25.30;55.00;;;;;;4990943;28;20053;-89
2022/05/12 11:05:27;;;;;;;2.85;1.30;;;25.30;55.50;;;;;;5005842;28;20033;-89
2022/05/12 11:08:20;;;;;;;2.78;1.10;;;25.20;55.30;;;;;;4988691;28;20467;-89
2022/05/12 11:11:09;;;;;;;4.55;1.30;;;25.30;54.80;;;;;;4985815;28;20022;-86
2022/05/12 11:14:01;;;;;;;4.07;1.63;;;25.30;55.10;;;;;;4995614;28;20042;-86
2022/05/12 11:16:33;;;;;;;3.88;1.10;;;25.20;55.20;;;;;;5018487;28;20061;-86
2022/05/12 11:19:01;;;;;;;4.28;1.42;;;25.30;55.30;;;;;;4997663;28;20443;-85
2022/05/12 11:21:29;;;;;;;1.52;1.20;;;25.30;55.30;;;;;;4982633;28;20048;-85
2022/05/12 11:24:37;;;;;;;3.08;1.30;;;25.30;55.70;;;;;;4986054;28;20110;-85
2022/05/12 11:27:05;;;;;;;1.35;1.10;;;25.10;55.80;;;;;;4988269;28;20079;-85
2022/05/12 11:29:52;;;;;;;4.43;3.55;;;25.10;55.80;;;;;;4986243;28;20049;-86
2022/05/12 11:32:53;;;;;;;2.65;1.17;;;25.20;55.90;;;;;;4993432;28;20023;-85
2022/05/12 11:35:30;;;;;;;1.27;1.00;;;25.40;56.10;;;;;;5072135;27;1958363;-87
2022/05/12 11:38:10;;;;;;;1.80;0.93;;;25.40;55.60;;;;;;5110993;28;20039;-85
2022/05/12 11:40:44;;;;;;;4.00;1.45;;;25.50;55.50;;;;;;5087853;28;20114;-85
2022/05/12 11:47:00;;;;;;;6.13;0.98;;;25.40;55.20;;;;;;5109831;28;20096;-84
2022/05/12 11:49:26;;;;;;;4.30;1.60;;;25.50;55.90;;;;;;5109823;28;20119;-84
2022/05/12 11:52:29;;;;;;;1.85;0.90;;;25.60;55.90;;;;;;5118938;28;20012;-84
2022/05/12 11:55:18;;;;;;;7.03;1.05;;;25.60;55.70;;;;;;5133199;27;20024;-85
2022/05/12 11:57:55;;;;;;;1.73;0.98;;;25.60;55.40;;;;;;5114317;28;20015;-85
2022/05/12 12:00:36;;;;;;;3.10;0.95;;;25.70;55.50;;;;;;5110058;28;20403;-85
2022/05/12 12:03:20;;;;;;;6.45;1.23;;;25.60;55.40;;;;;;5107895;28;20069;-84
2022/05/12 12:05:48;;;;;;;4.82;1.10;;;25.80;55.60;;;;;;5090187;28;20024;-83
2022/05/12 12:08:52;;;;;;;5.75;1.17;;;26.00;55.20;;;;;;5109861;28;20484;-83
2022/05/12 12:11:19;;;;;;;3.90;1.13;;;26.10;55.90;;;;;;5083469;28;20024;-84
2022/05/12 12:13:48;;;;;;;2.65;1.05;;;26.20;55.80;;;;;;5107556;28;20420;-84
2022/05/12 12:16:16;;;;;;;2.00;0.90;;;26.10;55.20;;;;;;5105204;28;20468;-83
2022/05/12 12:18:53;;;;;;;3.28;1.20;;;26.00;55.60;;;;;;5099157;28;20024;-84
2022/05/12 12:21:40;;;;;;;2.80;1.23;;;26.00;55.20;;;;;;5094982;28;20497;-84
2022/05/12 12:24:20;;;;;;;4.00;1.05;;;26.00;55.00;;;;;;5110232;28;20465;-84
2022/05/12 12:27:18;;;;;;;3.00;1.20;;;26.00;55.80;;;;;;5108094;28;20404;-83
2022/05/12 12:29:49;;;;;;;2.95;1.30;;;26.00;55.30;;;;;;5082173;28;20055;-90
2022/05/12 12:33:00;;;;;;;2.35;1.30;;;25.90;55.00;;;;;;5087424;28;20399;-91
2022/05/12 12:35:28;;;;;;;1.23;1.00;;;25.60;54.90;;;;;;5103623;28;20081;-90
2022/05/12 12:37:54;;;;;;;3.95;1.10;;;25.40;55.10;;;;;;5088692;28;20048;-89
2022/05/12 12:40:37;;;;;;;2.05;1.30;;;25.10;55.10;;;;;;5093000;28;20499;-91
2022/05/12 12:43:29;;;;;;;2.55;1.80;;;24.90;55.30;;;;;;5107595;28;20097;-88
2022/05/12 12:45:54;;;;;;;1.65;1.13;;;24.80;55.80;;;;;;5083408;28;20024;-89
2022/05/12 12:48:35;;;;;;;5.35;1.20;;;24.90;56.00;;;;;;5079784;28;20112;-93
2022/05/12 12:51:01;;;;;;;2.58;1.20;;;24.90;56.00;;;;;;5080826;28;20572;-89
2022/05/12 12:56:34;;;;;;;2.78;1.23;;;25.00;56.50;;;;;;5091001;28;20611;-88
2022/05/12 12:59:05;;;;;;;1.63;1.23;;;25.10;56.70;;;;;;5086618;28;20031;-89
2022/05/12 13:01:59;;;;;;;5.72;1.25;;;25.20;57.50;;;;;;5065732;28;20024;-89
2022/05/12 13:04:34;;;;;;;2.28;1.30;;;25.30;56.60;;;;;;5080850;28;20396;-90
2022/05/12 13:07:07;;;;;;;2.58;1.50;;;25.20;56.00;;;;;;5076591;28;20484;-91
2022/05/12 13:09:41;;;;;;;2.25;1.25;;;25.20;56.20;;;;;;5075969;28;20046;-89
2022/05/12 13:12:07;;;;;;;2.10;1.30;;;25.20;56.40;;;;;;5075062;28;20124;-90
2022/05/12 13:14:38;;;;;;;2.22;1.30;;;25.20;56.60;;;;;;5074191;28;20308;-90
2022/05/12 13:17:06;;;;;;;6.47;1.40;;;25.30;56.50;;;;;;5078453;28;20035;-90
2022/05/12 13:19:46;;;;;;;3.58;1.20;;;25.30;56.70;;;;;;5076776;28;20472;-91
2022/05/12 13:22:29;;;;;;;4.35;1.25;;;25.30;56.60;;;;;;5092800;28;20028;-92
2022/05/12 13:24:56;;;;;;;2.05;1.27;;;25.30;56.70;;;;;;5083265;28;20028;-90
2022/05/12 13:27:28;;;;;;;4.55;1.50;;;25.30;57.00;;;;;;5072076;28;20039;-91
2022/05/12 13:29:54;;;;;;;4.05;1.50;;;25.30;56.80;;;;;;5072295;28;20070;-89
2022/05/12 13:32:37;;;;;;;4.93;1.50;;;25.40;56.90;;;;;;5072720;28;20028;-91